Time;durP1;ratioP1;P1;durP2;ratioP2;P2;SDS_P1;SDS_P2;PMS_P1;PMS_P2;Temp;Humidity;BMP_temperature;BMP_pressure;BME280_temperature;BME280_humidity;BME280_pressure;Samples;Min_cycle;Max_cycle;Signal;HPM_P1;HPM_P2
2021/12/17 00:04:39;;;;;;;12.83;8.80;;;;;;;7.51;66.66;95360.03;5090897;28;20286;-74
2021/12/17 00:07:08;;;;;;;9.70;8.10;;;;;;;7.51;66.59;95365.97;5091251;28;20225;-72
2021/12/17 00:09:36;;;;;;;10.53;7.93;;;;;;;7.36;66.53;95341.53;5090761;28;20186;-72
2021/12/17 00:12:04;;;;;;;10.20;7.70;;;;;;;7.52;66.55;95371.88;5091035;28;20201;-72
2021/12/17 00:14:36;;;;;;;12.17;9.07;;;;;;;7.53;66.67;95370.94;5090776;28;20221;-73
2021/12/17 00:17:09;;;;;;;11.00;8.47;;;;;;;7.56;66.57;95385.22;5091408;28;20273;-71
2021/12/17 00:19:55;;;;;;;13.50;9.20;;;;;;;7.57;66.52;95384.28;5090923;28;20193;-73
2021/12/17 00:49:59;;;;;;;8.60;6.73;;;;;;;7.63;65.83;95368.59;5090219;28;20599;-71
2021/12/17 00:52:29;;;;;;;8.60;7.03;;;;;;;7.67;65.54;95372.56;5090978;28;20181;-72
2021/12/17 00:54:56;;;;;;;10.37;6.67;;;;;;;7.67;65.45;95367.47;5090183;28;20645;-72
2021/12/17 00:57:28;;;;;;;7.23;6.53;;;;;;;7.68;65.40;95364.81;5090525;28;20205;-72
2021/12/17 00:59:56;;;;;;;8.90;6.70;;;;;;;7.70;65.25;95370.63;5090270;28;20276;-73
2021/12/17 01:02:28;;;;;;;7.50;5.63;;;;;;;7.71;65.08;95356.16;5090278;28;20340;-72
2021/12/17 01:04:59;;;;;;;8.70;6.50;;;;;;;7.62;65.23;95349.97;5090441;28;20189;-72
2021/12/17 01:07:29;;;;;;;7.33;6.27;;;;;;;7.69;64.74;95355.47;5090528;28;20221;-73
2021/12/17 01:09:58;;;;;;;8.43;6.20;;;;;;;7.71;64.99;95363.81;5090872;28;20193;-71
2021/12/17 01:12:25;;;;;;;8.43;6.07;;;;;;;7.63;64.60;95350.78;5090769;28;20580;-72
2021/12/17 01:14:53;;;;;;;8.70;6.60;;;;;;;7.74;64.39;95355.97;5089595;28;20293;-71
2021/12/17 01:17:22;;;;;;;8.97;8.07;;;;;;;7.74;64.37;95350.88;5090541;28;20185;-72
2021/12/17 01:22:54;;;;;;;8.93;8.03;;;;;;;7.73;64.21;95344.16;5090301;28;20691;-72
2021/12/17 01:25:37;;;;;;;8.40;7.03;;;;;;;7.66;64.30;95333.56;5090386;28;20193;-71
2021/12/17 01:36:20;;;;;;;6.73;5.93;;;;;;;7.70;63.71;95336.72;5090785;28;20193;-72
2021/12/17 01:39:45;;;;;;;6.17;5.37;;;;;;;7.69;63.54;95330.03;5090308;28;20201;-72
2021/12/17 01:42:07;;;;;;;5.60;5.00;;;;;;;7.67;63.33;95329.28;5090682;28;20188;-72
2021/12/17 01:44:36;;;;;;;5.60;5.00;;;;;;;7.60;63.29;95313.63;5090040;28;20205;-73
2021/12/17 01:47:04;;;;;;;5.70;5.07;;;;;;;7.66;63.15;95317.50;5091323;28;20189;-72
2021/12/17 02:00:47;;;;;;;5.10;4.30;;;;;;;7.61;62.93;95317.81;5090266;28;20197;-73
2021/12/17 02:03:15;;;;;;;5.93;4.90;;;;;;;7.61;62.85;95320.34;5078541;28;20205;-71
2021/12/17 02:05:43;;;;;;;5.27;4.63;;;;;;;7.61;62.91;95314.44;5093471;28;20190;-75
2021/12/17 02:08:10;;;;;;;5.07;4.57;;;;;;;7.62;62.75;95331.34;5095288;28;20260;-71
2021/12/17 02:30:22;;;;;;;5.33;4.80;;;;;;;7.56;62.44;95291.03;5051507;28;20194;-72
2021/12/17 02:32:49;;;;;;;5.70;4.57;;;;;;;7.66;62.53;95304.75;5050689;28;20280;-73
2021/12/17 02:35:34;;;;;;;5.60;4.97;;;;;;;7.18;62.38;95230.84;5050464;28;20295;-74
2021/12/17 02:38:03;;;;;;;5.27;4.77;;;;;;;7.67;62.54;95303.84;5050476;28;20274;-74
2021/12/17 02:45:57;;;;;;;4.90;4.40;;;;;;;7.70;62.64;95309.53;4990889;28;20273;-74
2021/12/17 02:48:25;;;;;;;5.50;4.60;;;;;;;7.70;62.66;95299.34;4990699;28;20255;-76
2021/12/17 02:50:54;;;;;;;5.43;4.90;;;;;;;7.72;62.62;95301.78;4991010;28;20200;-76
2021/12/17 02:53:24;;;;;;;6.53;4.73;;;;;;;7.69;62.44;95300.28;4991080;28;20209;-73
2021/12/17 02:55:53;;;;;;;6.03;5.10;;;;;;;7.70;62.51;95301.91;4991608;28;20299;-71
2021/12/17 02:58:23;;;;;;;6.60;5.20;;;;;;;7.70;62.83;95298.53;4991365;28;20193;-75
2021/12/17 03:00:51;;;;;;;6.50;4.80;;;;;;;7.77;62.72;95304.81;4997370;28;20232;-73
2021/12/17 03:03:20;;;;;;;5.87;5.23;;;;;;;7.79;62.56;95310.63;4999518;28;20200;-74
2021/12/17 03:05:47;;;;;;;6.53;5.33;;;;;;;7.81;62.67;95308.78;4993204;28;20203;-75
2021/12/17 03:08:16;;;;;;;5.53;4.93;;;;;;;7.82;62.52;95307.88;4991059;28;20228;-72
2021/12/17 03:10:47;;;;;;;5.73;4.37;;;;;;;7.79;62.65;95292.81;4990524;28;20197;-71
2021/12/17 03:13:13;;;;;;;7.20;5.33;;;;;;;7.86;62.76;95308.47;4990528;28;20199;-74
2021/12/17 03:15:47;;;;;;;7.37;5.40;;;;;;;7.76;62.94;95285.38;4990149;28;20205;-73
2021/12/17 03:23:41;;;;;;;6.50;4.67;;;;;;;7.74;62.80;95271.97;5048137;28;20194;-75
2021/12/17 03:26:11;;;;;;;7.53;5.50;;;;;;;7.71;63.04;95272.97;5071783;28;20198;-72
2021/12/17 03:28:39;;;;;;;6.50;5.30;;;;;;;7.91;63.13;95293.72;5071464;28;20194;-73
2021/12/17 03:31:07;;;;;;;6.20;5.20;;;;;;;7.94;63.21;95301.91;5071763;28;20202;-72
2021/12/17 03:33:35;;;;;;;6.07;5.10;;;;;;;7.96;62.96;95302.66;5071517;28;20210;-72
2021/12/17 03:36:02;;;;;;;7.33;5.67;;;;;;;7.97;63.28;95304.25;5072006;28;20198;-72
2021/12/17 03:38:29;;;;;;;6.33;5.70;;;;;;;7.97;63.07;95299.19;5071922;28;20190;-72
2021/12/17 03:41:09;;;;;;;6.67;5.77;;;;;;;8.00;63.30;95298.16;5071233;28;20182;-72
2021/12/17 03:43:38;;;;;;;8.47;5.27;;;;;;;7.94;63.44;95289.19;5071108;28;20200;-73
2021/12/17 03:46:05;;;;;;;6.27;5.40;;;;;;;8.00;63.62;95290.53;5071653;28;20194;-71
2021/12/17 03:48:36;;;;;;;6.70;5.43;;;;;;;8.00;63.84;95287.97;5071667;28;20190;-72
2021/12/17 03:51:04;;;;;;;5.33;4.80;;;;;;;8.01;64.00;95284.50;5071673;28;20186;-74
2021/12/17 03:53:31;;;;;;;6.90;5.00;;;;;;;8.01;64.29;95282.75;5071160;28;20214;-71
2021/12/17 03:55:57;;;;;;;7.37;5.63;;;;;;;8.01;64.29;95277.66;5071175;28;20190;-74
2021/12/17 03:58:24;;;;;;;8.70;6.10;;;;;;;8.01;64.55;95275.13;5071228;28;20217;-74
2021/12/17 04:00:53;;;;;;;6.60;5.30;;;;;;;8.02;64.47;95274.19;5070895;28;20199;-73
2021/12/17 04:03:20;;;;;;;7.53;5.73;;;;;;;8.02;64.89;95271.63;5070855;28;20661;-71
2021/12/17 04:05:47;;;;;;;6.93;5.33;;;;;;;7.92;64.93;95259.69;5071135;28;20198;-73
2021/12/17 04:08:14;;;;;;;6.17;4.83;;;;;;;7.85;65.53;95233.00;5087182;28;20237;-72
2021/12/17 04:10:44;;;;;;;6.13;5.40;;;;;;;8.04;65.16;95264.72;5091096;28;20200;-73
2021/12/17 04:13:26;;;;;;;7.90;5.53;;;;;;;8.04;65.19;95258.81;5091380;28;20221;-71
2021/12/17 04:15:57;;;;;;;5.57;4.63;;;;;;;8.04;65.38;95267.28;5091620;28;20189;-73
2021/12/17 04:18:25;;;;;;;6.07;5.10;;;;;;;8.01;65.39;95246.28;5090909;28;20735;-72
2021/12/17 04:20:51;;;;;;;6.67;5.10;;;;;;;8.03;65.60;95242.72;5090657;28;20661;-73
2021/12/17 04:23:20;;;;;;;5.67;5.10;;;;;;;8.04;65.72;95238.44;5091140;28;20193;-72
2021/12/17 04:25:47;;;;;;;6.93;5.20;;;;;;;7.96;65.88;95228.78;5090730;28;20558;-72
2021/12/17 04:28:15;;;;;;;6.63;5.10;;;;;;;7.97;65.87;95220.22;5090923;28;20194;-72
2021/12/17 04:30:42;;;;;;;5.90;5.00;;;;;;;7.97;65.90;95212.59;5090324;28;20204;-72
2021/12/17 04:33:10;;;;;;;5.77;4.93;;;;;;;8.05;66.08;95222.22;5089816;28;20193;-73
2021/12/17 04:35:39;;;;;;;5.60;4.87;;;;;;;7.96;66.43;95202.50;5072647;28;20231;-72
2021/12/17 04:38:07;;;;;;;5.10;4.60;;;;;;;8.05;66.50;95217.13;5090694;28;20220;-73
2021/12/17 04:40:36;;;;;;;5.47;4.90;;;;;;;7.97;66.61;95202.41;5090680;28;20178;-71
2021/12/17 04:43:14;;;;;;;5.60;5.03;;;;;;;8.03;66.84;95212.16;5090706;28;20250;-71
2021/12/17 04:45:45;;;;;;;5.03;4.50;;;;;;;8.02;66.87;95207.97;5089997;28;20280;-72
2021/12/17 04:59:12;;;;;;;5.30;4.57;;;;;;;8.00;67.15;95201.38;5090106;28;20227;-72
2021/12/17 05:01:39;;;;;;;5.37;4.87;;;;;;;7.85;67.10;95172.72;5090576;28;20213;-72
2021/12/17 05:04:07;;;;;;;4.07;3.70;;;;;;;8.01;67.24;95214.00;5090398;28;20204;-72
2021/12/17 05:06:34;;;;;;;4.67;3.80;;;;;;;7.91;67.06;95202.03;5090169;28;20194;-71
2021/12/17 05:09:07;;;;;;;6.00;3.60;;;;;;;8.01;67.05;95211.44;5090089;28;20189;-73
2021/12/17 05:19:51;;;;;;;5.37;4.00;;;;;;;7.92;67.75;95193.47;5090251;28;20177;-73
2021/12/17 05:22:19;;;;;;;3.57;3.27;;;;;;;7.97;67.64;95206.69;5090152;28;20661;-73
2021/12/17 05:24:47;;;;;;;5.07;3.80;;;;;;;7.82;67.70;95179.78;5090336;28;20194;-73
2021/12/17 05:27:14;;;;;;;5.27;3.97;;;;;;;8.02;67.67;95209.72;5090728;28;20197;-72
2021/12/17 05:29:40;;;;;;;4.73;3.73;;;;;;;8.02;67.90;95217.34;5090037;28;20185;-72
2021/12/17 05:32:08;;;;;;;3.67;3.37;;;;;;;7.98;67.84;95204.00;5090219;28;20190;-74
2021/12/17 05:34:35;;;;;;;4.17;3.57;;;;;;;8.03;67.91;95214.72;5099197;28;20193;-73
2021/12/17 05:37:04;;;;;;;3.40;3.10;;;;;;;8.04;67.92;95212.97;5110964;28;20195;-73
2021/12/17 05:39:31;;;;;;;3.63;3.13;;;;;;;8.02;68.12;95207.16;5110419;28;20192;-72
2021/12/17 05:41:58;;;;;;;3.83;3.53;;;;;;;7.98;68.08;95200.66;5110758;28;20193;-72
2021/12/17 05:44:25;;;;;;;3.60;3.10;;;;;;;8.05;68.19;95201.84;5111700;28;20197;-73
2021/12/17 05:46:52;;;;;;;3.50;3.20;;;;;;;7.94;68.09;95181.41;5105911;28;20240;-72
2021/12/17 05:49:20;;;;;;;3.47;2.90;;;;;;;8.08;68.32;95195.75;5093613;28;20759;-72
2021/12/17 05:51:48;;;;;;;3.50;3.20;;;;;;;8.04;68.38;95190.06;5096633;28;20185;-73
2021/12/17 05:54:17;;;;;;;3.83;2.93;;;;;;;8.07;68.10;95197.44;5091695;28;20229;-72
2021/12/17 05:56:44;;;;;;;2.80;2.60;;;;;;;8.07;68.13;95199.19;5091551;28;20561;-73
2021/12/17 05:59:11;;;;;;;3.47;3.17;;;;;;;7.99;68.06;95195.47;5091270;28;20182;-72
2021/12/17 06:01:38;;;;;;;3.43;3.07;;;;;;;8.08;68.28;95211.84;5093078;28;20194;-73
2021/12/17 06:04:05;;;;;;;3.17;2.70;;;;;;;8.09;68.21;95226.19;5098181;28;20200;-73
2021/12/17 06:06:36;;;;;;;3.30;3.00;;;;;;;8.09;68.14;95222.84;5094337;28;20212;-74
2021/12/17 06:09:06;;;;;;;3.47;3.17;;;;;;;8.10;68.11;95227.81;5091469;28;20190;-73
2021/12/17 06:11:35;;;;;;;3.50;3.20;;;;;;;8.11;68.21;95224.34;5090520;28;20575;-72
2021/12/17 06:14:03;;;;;;;3.43;2.87;;;;;;;8.13;67.99;95227.59;5090887;28;20185;-76
2021/12/17 06:16:33;;;;;;;3.10;2.90;;;;;;;8.14;67.86;95233.50;5072225;28;20189;-75
2021/12/17 06:19:00;;;;;;;2.83;2.63;;;;;;;8.04;67.73;95218.06;5090921;28;20182;-72
2021/12/17 06:21:27;;;;;;;3.50;2.93;;;;;;;8.14;67.78;95239.41;5090633;28;20689;-76
2021/12/17 06:23:53;;;;;;;3.10;2.80;;;;;;;8.14;67.59;95229.22;5090406;28;20204;-74
2021/12/17 06:26:21;;;;;;;2.70;2.50;;;;;;;8.15;67.55;95238.47;5090814;28;20186;-73
2021/12/17 06:28:50;;;;;;;3.20;2.90;;;;;;;8.17;67.51;95234.09;5091398;28;20189;-72
2021/12/17 06:31:18;;;;;;;2.90;2.60;;;;;;;8.16;67.50;95229.09;5099981;28;20726;-72
2021/12/17 06:33:44;;;;;;;2.87;2.57;;;;;;;8.18;67.37;95229.81;5094173;28;20188;-72
2021/12/17 06:36:11;;;;;;;2.70;2.50;;;;;;;8.17;67.50;95231.56;5105556;28;20228;-73
2021/12/17 06:38:38;;;;;;;3.33;2.70;;;;;;;8.19;67.86;95229.69;5104249;28;20205;-74
2021/12/17 06:41:05;;;;;;;2.80;2.60;;;;;;;8.21;67.72;95234.69;5098222;28;20201;-72
2021/12/17 06:43:45;;;;;;;2.90;2.70;;;;;;;8.08;67.78;95211.84;5098168;28;20208;-71
2021/12/17 06:46:20;;;;;;;4.20;2.50;;;;;;;8.22;67.88;95229.47;5093099;28;20200;-72
2021/12/17 06:48:51;;;;;;;2.90;2.70;;;;;;;8.22;68.06;95231.22;5098356;28;20228;-73
2021/12/17 06:59:46;;;;;;;2.80;2.50;;;;;;;8.23;68.35;95237.94;5100270;28;20398;-74
2021/12/17 07:19:29;;;;;;;3.07;2.87;;;;;;;8.29;68.53;95245.97;5105654;28;20196;-71
2021/12/17 07:21:56;;;;;;;3.73;3.40;;;;;;;8.29;68.55;95245.97;5102012;28;20192;-72
2021/12/17 07:24:48;;;;;;;3.50;3.20;;;;;;;8.28;68.69;95236.66;5103523;28;20295;-75
2021/12/17 07:32:49;;;;;;;4.23;3.83;;;;;;;8.30;68.58;95232.28;5104520;28;20714;-71
2021/12/17 07:35:37;;;;;;;5.17;3.57;;;;;;;8.32;68.77;95232.16;5104696;28;20315;-72
2021/12/17 07:40:51;;;;;;;6.07;4.97;;;;;;;8.33;69.15;95220.25;5100526;28;20659;-72
2021/12/17 07:43:36;;;;;;;4.40;3.93;;;;;;;8.21;69.12;95204.13;5105788;28;20219;-73
2021/12/17 07:46:04;;;;;;;5.23;4.63;;;;;;;8.30;69.48;95216.19;5105341;28;20185;-71
2021/12/17 07:48:32;;;;;;;7.23;4.40;;;;;;;8.36;69.48;95217.47;5094527;28;20209;-73
2021/12/17 07:51:02;;;;;;;5.10;4.10;;;;;;;8.36;69.42;95222.56;5105260;28;20208;-72
2021/12/17 07:53:29;;;;;;;4.30;3.90;;;;;;;8.36;69.40;95225.94;5106963;28;20570;-72
2021/12/17 07:55:56;;;;;;;5.80;5.20;;;;;;;8.37;69.50;95225.03;5105662;28;20206;-74
2021/12/17 07:58:23;;;;;;;5.10;4.57;;;;;;;8.37;69.66;95219.13;5101999;28;20663;-69
2021/12/17 08:00:50;;;;;;;5.70;4.80;;;;;;;8.36;69.66;95225.13;5093597;28;20197;-74
2021/12/17 08:03:17;;;;;;;5.63;4.90;;;;;;;8.37;69.94;95230.13;5101021;28;20978;-72
2021/12/17 08:05:44;;;;;;;7.07;5.57;;;;;;;8.36;69.84;95238.69;5105904;28;20197;-72
2021/12/17 08:08:12;;;;;;;5.57;4.87;;;;;;;8.20;70.21;95212.66;5106166;28;20648;-73
2021/12/17 08:10:39;;;;;;;5.83;5.23;;;;;;;8.40;69.98;95244.41;5104375;28;20200;-78
2021/12/17 08:13:11;;;;;;;6.03;5.17;;;;;;;8.40;70.20;95250.31;5099117;28;20193;-73
2021/12/17 08:15:46;;;;;;;6.10;5.50;;;;;;;8.42;70.35;95245.09;5099581;28;20300;-74
2021/12/17 08:18:28;;;;;;;2.80;2.60;;;;;;;9.04;100.00;95229.47;5101685;28;20271;-76
2021/12/17 08:26:55;;;;;;;5.50;2.83;;;;;;;12.59;99.01;95217.44;5098663;28;20576;-77
2021/12/17 08:29:27;;;;;;;3.13;2.83;;;;;;;13.31;92.03;95191.19;5103919;28;20246;-75
2021/12/17 08:31:55;;;;;;;3.33;2.40;;;;;;;14.27;86.77;95219.84;5103052;28;20185;-76
2021/12/17 08:34:22;;;;;;;3.50;2.47;;;;;;;14.92;82.27;95222.13;5101178;28;20196;-77
2021/12/17 08:36:49;;;;;;;2.50;2.30;;;;;;;15.38;79.10;95200.34;5101129;28;20204;-77
2021/12/17 08:39:18;;;;;;;2.30;2.10;;;;;;;15.99;75.96;95219.09;5099107;28;20201;-76
2021/12/17 08:41:49;;;;;;;2.77;2.57;;;;;;;16.40;73.28;95214.78;5104328;28;20201;-77
2021/12/17 08:44:16;;;;;;;2.60;2.40;;;;;;;16.69;71.26;95205.75;5096687;28;20202;-75
2021/12/17 08:46:43;;;;;;;3.13;2.83;;;;;;;17.14;69.23;95209.59;5100415;28;20207;-74
2021/12/17 08:49:10;;;;;;;2.70;2.50;;;;;;;17.37;67.69;95189.84;5099323;28;20675;-76
2021/12/17 08:51:38;;;;;;;2.97;2.60;;;;;;;17.47;66.37;95168.94;5100485;28;20699;-78
2021/12/17 08:54:05;;;;;;;5.47;2.53;;;;;;;17.77;66.27;95182.91;5102903;28;20193;-77
2021/12/17 08:56:35;;;;;;;2.80;2.60;;;;;;;17.98;61.17;95200.41;5097848;28;20209;-75
2021/12/17 08:59:04;;;;;;;3.80;2.70;;;;;;;17.95;63.37;95175.66;5101557;28;20668;-75
2021/12/17 09:01:31;;;;;;;3.77;2.40;;;;;;;18.35;62.78;95204.03;5106207;28;20591;-74
2021/12/17 09:03:58;;;;;;;2.43;2.30;;;;;;;18.53;62.04;95200.19;5100678;28;20731;-75
2021/12/17 09:06:26;;;;;;;2.77;2.40;;;;;;;18.70;61.84;95206.09;5101784;28;20189;-76
2021/12/17 09:08:55;;;;;;;4.37;2.50;;;;;;;18.83;61.51;95192.53;5098792;28;20650;-76
2021/12/17 09:11:22;;;;;;;4.80;2.40;;;;;;;19.03;61.07;95200.59;5095997;28;20207;-74
2021/12/17 09:13:52;;;;;;;3.23;2.63;;;;;;;19.14;60.36;95182.00;5099284;28;20220;-76
2021/12/17 09:16:21;;;;;;;3.33;3.03;;;;;;;19.29;59.18;95182.81;5097476;28;20220;-77
2021/12/17 09:18:49;;;;;;;3.30;3.00;;;;;;;19.11;57.42;95164.22;5093253;28;20193;-78
2021/12/17 09:21:16;;;;;;;3.93;2.83;;;;;;;19.28;58.10;95177.81;5100224;28;20201;-77
2021/12/17 09:23:43;;;;;;;3.33;2.80;;;;;;;19.39;58.01;95173.97;5097347;28;20607;-78
2021/12/17 09:26:10;;;;;;;4.00;2.90;;;;;;;19.45;57.76;95165.44;5106128;28;20197;-77
2021/12/17 09:28:37;;;;;;;3.40;2.80;;;;;;;19.57;57.38;95176.19;5100076;28;20197;-76
2021/12/17 09:31:06;;;;;;;3.77;2.60;;;;;;;19.65;57.01;95176.91;5097472;28;20199;-76
2021/12/17 09:33:33;;;;;;;3.10;2.80;;;;;;;19.71;56.84;95170.97;5104303;28;20279;-78
2021/12/17 09:36:01;;;;;;;3.30;3.00;;;;;;;19.79;56.29;95181.25;5098413;28;20729;-77
2021/12/17 09:38:30;;;;;;;2.70;2.50;;;;;;;19.76;56.23;95166.03;5094020;28;20196;-76
2021/12/17 09:40:57;;;;;;;3.47;2.80;;;;;;;19.87;55.59;95163.97;5104509;28;20213;-78
2021/12/17 09:43:25;;;;;;;3.00;2.80;;;;;;;19.90;55.55;95161.00;5103225;28;20190;-74
2021/12/17 09:45:52;;;;;;;3.27;2.93;;;;;;;19.72;54.79;95125.06;5095548;28;20566;-75
2021/12/17 09:48:21;;;;;;;3.00;2.80;;;;;;;20.03;54.43;95146.38;5103926;28;20205;-77
2021/12/17 09:50:48;;;;;;;3.10;2.80;;;;;;;20.10;54.13;95143.84;5104152;28;20910;-75
2021/12/17 09:53:15;;;;;;;2.83;2.63;;;;;;;19.89;53.89;95099.69;5098522;28;20190;-76
2021/12/17 09:55:42;;;;;;;2.93;2.70;;;;;;;20.18;53.72;95128.13;5094930;28;20225;-75
2021/12/17 09:58:08;;;;;;;2.57;2.37;;;;;;;20.18;53.47;95111.75;5095371;28;20197;-76
2021/12/17 10:00:35;;;;;;;3.43;3.03;;;;;;;20.26;53.13;95128.00;5095721;28;20357;-75
2021/12/17 10:03:02;;;;;;;2.70;2.50;;;;;;;20.29;53.12;95124.22;5101065;28;20200;-75
2021/12/17 10:05:34;;;;;;;2.87;2.67;;;;;;;20.28;52.82;95115.63;5100814;28;20204;-80
2021/12/17 10:08:03;;;;;;;3.20;2.90;;;;;;;20.26;52.87;95101.25;5096047;28;20229;-76
2021/12/17 10:10:35;;;;;;;2.92;2.72;;;;;;;20.35;52.70;95107.09;5098134;28;20193;-77
2021/12/17 10:13:13;;;;;;;3.33;3.03;;;;;;;20.36;52.38;95108.69;5096645;28;20201;-77
2021/12/17 10:15:43;;;;;;;2.70;2.50;;;;;;;20.27;52.08;95082.06;5095218;28;20221;-74
2021/12/17 10:18:11;;;;;;;3.20;2.90;;;;;;;20.42;52.15;95087.16;5098158;28;20232;-76
2021/12/17 10:20:53;;;;;;;2.70;2.50;;;;;;;20.42;51.90;95093.19;5097346;28;20189;-78
2021/12/17 10:23:23;;;;;;;3.50;2.90;;;;;;;20.44;51.67;95080.78;5099160;28;20193;-77
2021/12/17 10:25:50;;;;;;;3.07;2.87;;;;;;;20.44;51.65;95070.41;5098967;28;20197;-75
2021/12/17 10:28:17;;;;;;;3.00;2.80;;;;;;;20.42;51.69;95062.00;5099671;28;20208;-77
2021/12/17 10:30:47;;;;;;;2.83;2.63;;;;;;;20.46;51.70;95063.19;5091778;28;20204;-74
2021/12/17 10:33:17;;;;;;;2.77;2.57;;;;;;;20.48;51.25;95065.66;5104245;28;20201;-76
2021/12/17 10:35:50;;;;;;;2.75;2.55;;;;;;;20.48;51.23;95057.88;5099546;28;20225;-76
2021/12/17 10:38:23;;;;;;;2.65;2.45;;;;;;;20.41;51.02;95038.78;5104633;28;20272;-77
2021/12/17 10:40:56;;;;;;;2.80;2.60;;;;;;;20.52;50.80;95039.09;5099264;28;20255;-75
2021/12/17 10:43:27;;;;;;;2.75;2.55;;;;;;;20.54;50.60;95041.50;5097579;28;20198;-77
2021/12/17 10:46:03;;;;;;;3.00;2.80;;;;;;;20.46;50.68;95013.03;5105620;28;20193;-78
2021/12/17 10:48:36;;;;;;;3.37;2.37;;;;;;;20.52;50.38;95017.50;5110498;28;20309;-78
2021/12/17 10:51:44;;;;;;;2.63;2.43;;;;;;;20.59;50.21;95020.13;5084249;28;20205;-76
2021/12/17 10:54:13;;;;;;;2.67;2.47;;;;;;;20.21;50.17;94966.75;5100764;28;20189;-78
2021/12/17 10:56:43;;;;;;;2.60;2.40;;;;;;;20.54;50.37;95038.91;5100709;28;20228;-77
2021/12/17 10:59:12;;;;;;;2.70;2.50;;;;;;;20.51;50.14;95036.72;5097180;28;20186;-75
2021/12/17 11:01:44;;;;;;;2.65;2.45;;;;;;;20.47;50.35;95041.44;5103576;28;20651;-77
2021/12/17 11:04:18;;;;;;;2.67;2.47;;;;;;;20.44;50.30;95034.03;5105924;28;20204;-76
2021/12/17 11:06:49;;;;;;;2.55;2.35;;;;;;;20.41;50.46;95031.00;5102884;28;20232;-75
2021/12/17 11:09:39;;;;;;;2.70;2.50;;;;;;;20.21;50.07;94992.72;5103142;28;20276;-78
2021/12/17 11:12:27;;;;;;;2.38;2.17;;;;;;;20.41;50.41;95023.19;5105596;28;20204;-76
2021/12/17 11:14:56;;;;;;;2.92;2.72;;;;;;;20.28;49.89;95029.09;5099813;28;20710;-75
2021/12/17 11:17:23;;;;;;;3.47;3.17;;;;;;;19.86;48.28;95017.81;5099963;28;20225;-75
2021/12/17 11:19:54;;;;;;;3.77;3.40;;;;;;;19.25;47.40;94991.44;5105160;28;20846;-75
2021/12/17 11:22:23;;;;;;;3.90;3.47;;;;;;;18.96;47.30;95024.25;5103072;28;20254;-75
2021/12/17 11:24:51;;;;;;;4.07;3.70;;;;;;;18.50;47.55;95018.44;5099233;28;20190;-75
2021/12/17 11:27:18;;;;;;;4.93;4.53;;;;;;;17.99;47.42;94997.56;5106716;28;20200;-75
2021/12/17 11:29:46;;;;;;;6.47;5.87;;;;;;;17.39;47.66;94965.50;5099079;28;20221;-75
2021/12/17 11:32:13;;;;;;;6.20;5.57;;;;;;;17.24;48.08;95000.84;5097195;28;20208;-75
2021/12/17 11:34:42;;;;;;;6.40;5.80;;;;;;;16.92;48.73;95000.03;5104457;28;20224;-74
2021/12/17 11:37:09;;;;;;;5.40;4.90;;;;;;;16.56;49.02;95004.84;5100216;28;20692;-74
2021/12/17 11:39:44;;;;;;;5.53;4.80;;;;;;;16.17;49.68;94990.13;5104775;28;20668;-74
2021/12/17 11:42:28;;;;;;;5.17;4.67;;;;;;;15.78;50.06;94988.22;5095352;28;20209;-75
2021/12/17 11:47:37;;;;;;;4.73;4.30;;;;;;;15.07;51.12;94975.91;5098770;28;20306;-75
2021/12/17 11:50:06;;;;;;;4.40;4.00;;;;;;;14.77;51.54;94969.56;5093641;28;20196;-75
2021/12/17 11:52:44;;;;;;;4.50;4.10;;;;;;;14.40;52.23;94951.84;5101736;28;20202;-76
2021/12/17 11:55:34;;;;;;;4.67;3.97;;;;;;;14.14;52.63;94954.47;5101221;28;20207;-76
2021/12/17 11:58:06;;;;;;;5.60;3.73;;;;;;;13.94;53.36;94969.28;5012900;28;20206;-75
2021/12/17 12:00:50;;;;;;;4.77;4.10;;;;;;;13.68;53.71;94966.72;5019919;28;20223;-75
2021/12/17 12:03:19;;;;;;;3.70;3.40;;;;;;;13.30;54.28;94941.22;5018596;28;20686;-76
2021/12/17 12:05:47;;;;;;;3.70;3.40;;;;;;;13.18;54.64;94955.22;5016390;28;20227;-76
2021/12/17 12:08:31;;;;;;;4.10;3.70;;;;;;;12.83;55.03;94944.94;5016200;28;20224;-74
2021/12/17 12:11:10;;;;;;;4.00;3.70;;;;;;;12.67;55.34;94960.97;5010705;28;20196;-75
2021/12/17 12:13:40;;;;;;;3.97;3.03;;;;;;;12.55;55.93;94962.91;5011808;28;20188;-76
2021/12/17 12:16:09;;;;;;;3.63;3.33;;;;;;;11.95;56.15;94886.38;5012757;28;20224;-76
2021/12/17 12:18:44;;;;;;;4.37;3.77;;;;;;;12.21;56.56;94942.94;5011359;28;20196;-76
2021/12/17 12:21:12;;;;;;;3.63;3.33;;;;;;;11.54;57.07;94862.78;5019211;28;20198;-75
2021/12/17 12:23:56;;;;;;;3.90;3.60;;;;;;;11.88;57.29;94925.56;5015425;28;20192;-76
2021/12/17 12:26:37;;;;;;;3.33;3.03;;;;;;;11.79;57.49;94925.41;5020785;28;20199;-76
2021/12/17 12:29:13;;;;;;;3.80;3.50;;;;;;;11.57;57.34;94900.09;5018415;28;20209;-76
2021/12/17 12:32:02;;;;;;;4.30;3.90;;;;;;;11.53;57.81;94912.38;5013331;28;20206;-75
2021/12/17 12:34:36;;;;;;;3.80;3.50;;;;;;;11.42;57.74;94904.03;5044062;28;20619;-76
2021/12/17 12:37:19;;;;;;;4.73;4.10;;;;;;;11.22;58.10;94895.56;5097556;28;20223;-74
2021/12/17 12:40:18;;;;;;;4.10;3.53;;;;;;;11.16;58.23;94894.38;5093702;28;20607;-75
2021/12/17 12:42:54;;;;;;;3.87;3.47;;;;;;;11.10;58.30;94906.94;5101313;28;20273;-74
2021/12/17 12:45:22;;;;;;;3.80;3.50;;;;;;;10.93;58.17;94885.38;5096299;28;20196;-76
2021/12/17 12:47:58;;;;;;;4.70;4.17;;;;;;;10.91;58.49;94889.81;5101223;28;20591;-75
2021/12/17 12:50:28;;;;;;;4.03;3.50;;;;;;;10.84;58.62;94898.94;5106240;28;20228;-76
2021/12/17 12:52:58;;;;;;;4.03;3.63;;;;;;;10.75;58.66;94900.56;5083059;28;20200;-76
2021/12/17 12:55:29;;;;;;;3.40;3.10;;;;;;;10.68;58.77;94899.50;5082439;28;20341;-75
2021/12/17 12:58:09;;;;;;;4.17;3.77;;;;;;;10.49;58.89;94883.19;5098689;28;20224;-75
2021/12/17 13:00:40;;;;;;;3.67;3.37;;;;;;;10.34;58.79;94860.69;5102217;28;20192;-75
2021/12/17 13:03:10;;;;;;;3.57;3.13;;;;;;;10.44;59.08;94875.09;5106205;28;20732;-74
2021/12/17 13:05:37;;;;;;;4.73;3.70;;;;;;;10.47;59.02;94881.69;5099584;28;20192;-74
2021/12/17 13:08:06;;;;;;;3.10;2.80;;;;;;;10.42;59.18;94884.66;5100603;28;20385;-76
2021/12/17 13:10:35;;;;;;;3.13;2.83;;;;;;;10.35;58.97;94891.22;5098373;28;20194;-74
2021/12/17 13:13:14;;;;;;;3.17;2.87;;;;;;;10.33;59.15;94902.53;5096938;28;20196;-74
2021/12/17 13:15:46;;;;;;;3.10;2.80;;;;;;;10.32;59.44;94914.50;5103725;28;20582;-74
2021/12/17 13:23:50;;;;;;;3.83;2.90;;;;;;;10.27;59.25;94909.75;5084960;28;20228;-74
2021/12/17 13:26:19;;;;;;;3.03;2.70;;;;;;;10.25;59.03;94900.63;5104808;28;20716;-77
2021/12/17 13:29:00;;;;;;;3.20;2.90;;;;;;;10.20;59.04;94897.63;5108711;28;20204;-77
2021/12/17 13:31:40;;;;;;;3.50;3.20;;;;;;;10.11;58.83;94867.75;5101162;28;20599;-75
2021/12/17 13:34:09;;;;;;;3.33;3.03;;;;;;;10.11;58.77;94893.28;5098708;28;20193;-74
2021/12/17 13:36:37;;;;;;;3.33;2.80;;;;;;;9.91;58.81;94877.88;5099256;28;20939;-77
2021/12/17 13:39:05;;;;;;;6.73;4.97;;;;;;;9.72;58.52;94858.19;5109655;28;20726;-76
2021/12/17 13:41:38;;;;;;;5.37;4.50;;;;;;;9.84;58.94;94878.53;5100174;28;20301;-75
2021/12/17 13:44:24;;;;;;;6.20;3.97;;;;;;;9.71;59.01;94871.06;5098768;28;20571;-74
2021/12/17 13:46:51;;;;;;;5.03;4.23;;;;;;;9.91;58.59;94894.97;5101563;28;20193;-75
2021/12/17 13:49:19;;;;;;;4.67;3.50;;;;;;;9.71;58.85;94883.84;5093946;28;20216;-74
2021/12/17 13:51:46;;;;;;;4.03;3.47;;;;;;;9.83;58.63;94908.38;5103278;28;20193;-75
2021/12/17 13:54:14;;;;;;;3.57;3.27;;;;;;;9.70;58.59;94888.16;5100910;28;20680;-75
2021/12/17 13:56:41;;;;;;;3.23;2.97;;;;;;;9.72;58.48;94903.34;5106895;28;20209;-75
2021/12/17 13:59:10;;;;;;;3.60;3.20;;;;;;;9.63;58.57;94888.78;5104421;28;20279;-76
2021/12/17 14:01:38;;;;;;;4.33;3.87;;;;;;;9.66;58.76;94903.84;5095444;28;20669;-74
2021/12/17 14:04:14;;;;;;;5.67;3.10;;;;;;;9.62;58.82;94887.97;5096491;28;20194;-74
2021/12/17 14:06:52;;;;;;;4.93;3.40;;;;;;;9.60;58.96;94883.94;5098214;28;20258;-75
2021/12/17 14:09:21;;;;;;;3.13;2.83;;;;;;;9.57;58.90;94887.53;5109990;28;20189;-76
2021/12/17 14:11:48;;;;;;;4.57;3.27;;;;;;;9.55;59.00;94879.22;5098129;28;20204;-76
2021/12/17 14:14:24;;;;;;;3.93;3.40;;;;;;;9.47;59.21;94877.28;5096829;28;20578;-73
2021/12/17 14:16:57;;;;;;;3.33;3.03;;;;;;;9.50;59.17;94894.13;5104269;28;20270;-75
2021/12/17 14:19:36;;;;;;;3.20;3.00;;;;;;;9.47;59.23;94907.13;5106974;28;20193;-75
2021/12/17 14:22:20;;;;;;;3.37;3.07;;;;;;;9.44;59.10;94902.25;5099353;28;20225;-74
2021/12/17 14:24:47;;;;;;;3.97;3.17;;;;;;;9.35;59.21;94900.47;5109741;28;20632;-76
2021/12/17 14:27:14;;;;;;;3.27;2.97;;;;;;;9.38;59.27;94907.88;5107691;28;20186;-76